Brevard, North Carolina
Current Conditions -  °F | °C
As of 3:54 AM on Thursday 18 Dec 2014 (Local Time) from KAVL Reporting Station
Clear Clear  
Wind Chill: 25°   Ceiling: Unl
Heat Index: 35°   Visibility: 10mi
Dew Point: 29°   Wind: 17mph
Humidity: 78%   Direction: 340°NNW
Pressure: 30.13"   Gusts: NA
Location:  35.23°N, 82.73°W
Report Text: KAVL 180854Z AUTO 34015KT 10SM CLR 02/M02 A3013 RMK AO2 SLP205 T00171017 51003
Loading
Personal Weather Stations






























Interactive Weather Map New forecast layout! Learn more

10-Day Weather Forecast

Advertisements
Track Severe Weather on mobile